Terminal Aerodrome Forecast
Issued by NWS

Home | Current Version | Previous Version | Graphics & Text | Print | Product List | Glossary On
Versions: 1 2 3 4 5 6 7 8 9 10 11 12
788
FTUS45 KGGW 171720
TAFSDY
TAF
KSDY 171720Z 1718/1818 01012KT P6SM FEW120
     FM180000 05006KT P6SM FEW100 SCT200
     FM181000 01004KT P6SM SCT090 BKN120
     FM181200 VRB05KT P6SM SCT120=

USA.gov is the U.S. government's official web portal to all federal, state and local government web resources and services.